createdAt,value
2018-12-25T00:00:24.037Z,3.02
2018-12-25T00:03:31.737Z,3.08
2018-12-25T00:06:39.080Z,3.12
2018-12-25T00:09:46.417Z,3.15
2018-12-25T00:12:53.721Z,3.45
2018-12-25T00:16:01.209Z,2.92
2018-12-25T00:19:09.118Z,3.00
2018-12-25T00:22:18.538Z,2.37
2018-12-25T00:25:34.354Z,3.08
2018-12-25T00:28:41.480Z,3.40
2018-12-25T00:31:51.162Z,3.40
2018-12-25T00:34:58.318Z,3.12
2018-12-25T00:38:05.569Z,2.65
2018-12-25T00:41:13.141Z,2.40
2018-12-25T00:44:20.392Z,2.27
2018-12-25T00:47:27.435Z,2.70
2018-12-25T00:50:34.732Z,2.92
2018-12-25T00:53:41.903Z,2.42
2018-12-25T00:56:49.088Z,2.77
2018-12-25T00:59:56.355Z,2.67
2018-12-25T01:03:03.514Z,2.83
2018-12-25T01:06:10.746Z,2.55
2018-12-25T01:09:18.058Z,2.90
2018-12-25T01:12:27.761Z,2.62
2018-12-25T01:15:34.896Z,2.67
2018-12-25T01:18:41.979Z,2.42
2018-12-25T01:21:49.325Z,2.30
2018-12-25T01:24:57.699Z,2.62
2018-12-25T01:28:04.885Z,2.72
2018-12-25T01:31:12.179Z,2.55
2018-12-25T01:34:19.263Z,2.98
2018-12-25T01:37:26.495Z,2.30
2018-12-25T01:40:33.520Z,2.52
2018-12-25T01:43:40.614Z,2.10
2018-12-25T01:46:47.673Z,2.42
2018-12-25T01:49:54.731Z,2.42
2018-12-25T01:53:02.121Z,2.02
2018-12-25T01:56:09.131Z,2.10
2018-12-25T01:59:16.137Z,2.60
2018-12-25T02:02:23.359Z,2.55
2018-12-25T02:05:30.417Z,2.00
2018-12-25T02:08:37.481Z,2.37
2018-12-25T02:11:44.617Z,3.02
2018-12-25T02:14:51.705Z,2.12
2018-12-25T02:17:58.790Z,2.30
2018-12-25T02:21:06.131Z,2.42
2018-12-25T02:24:13.255Z,2.25
2018-12-25T02:27:20.406Z,2.12
2018-12-25T02:30:27.566Z,2.58
2018-12-25T02:33:34.794Z,2.20
2018-12-25T02:36:42.092Z,2.73
2018-12-25T02:39:49.289Z,2.17
2018-12-25T02:42:56.369Z,3.05
2018-12-25T02:46:03.445Z,2.17
2018-12-25T02:49:12.358Z,2.33
2018-12-25T02:52:19.405Z,2.30
2018-12-25T02:55:26.407Z,2.30
2018-12-25T02:58:33.547Z,2.17
2018-12-25T03:01:42.867Z,2.37
2018-12-25T03:04:50.016Z,2.57
2018-12-25T03:07:57.051Z,1.83
2018-12-25T03:11:04.159Z,2.07
2018-12-25T03:14:11.382Z,2.23
2018-12-25T03:17:18.550Z,2.07
2018-12-25T03:20:25.668Z,2.03
2018-12-25T03:23:32.738Z,2.23
2018-12-25T03:26:39.835Z,2.80
2018-12-25T03:29:48.356Z,2.25
2018-12-25T03:32:55.411Z,2.37
2018-12-25T03:36:02.424Z,2.37
2018-12-25T03:39:09.437Z,2.20
2018-12-25T03:42:16.447Z,2.27
2018-12-25T03:45:23.951Z,2.20
2018-12-25T03:48:31.051Z,2.53
2018-12-25T03:51:38.021Z,2.10
2018-12-25T03:54:45.001Z,2.20
2018-12-25T03:57:52.893Z,1.90
2018-12-25T04:00:59.937Z,1.83
2018-12-25T04:04:07.053Z,2.00
2018-12-25T04:07:14.206Z,1.50
2018-12-25T04:10:21.269Z,2.13
2018-12-25T04:13:28.519Z,2.07
2018-12-25T04:16:35.691Z,2.30
2018-12-25T04:19:42.684Z,1.67
2018-12-25T04:22:49.815Z,2.70
2018-12-25T04:25:57.955Z,2.10
2018-12-25T04:29:05.077Z,1.77
2018-12-25T04:32:12.186Z,1.80
2018-12-25T04:35:19.403Z,1.90
2018-12-25T04:38:26.415Z,2.07
2018-12-25T04:41:33.572Z,2.10
2018-12-25T04:44:40.650Z,1.90
2018-12-25T04:47:47.615Z,1.72
2018-12-25T04:50:54.649Z,1.60
2018-12-25T04:54:02.712Z,2.17
2018-12-25T04:57:09.883Z,2.23
2018-12-25T05:00:17.089Z,1.80
2018-12-25T05:03:24.209Z,2.10
2018-12-25T05:06:32.347Z,2.17
2018-12-25T05:09:39.396Z,1.77
2018-12-25T05:12:46.379Z,2.00
2018-12-25T05:15:53.414Z,1.70
2018-12-25T05:19:00.404Z,1.93
2018-12-25T05:22:07.412Z,1.93
2018-12-25T05:25:14.490Z,2.40
2018-12-25T05:28:21.544Z,1.50
2018-12-25T05:31:28.969Z,1.73
2018-12-25T05:34:38.348Z,2.03
2018-12-25T05:37:45.481Z,2.17
2018-12-25T05:40:52.641Z,1.67
2018-12-25T05:43:59.696Z,2.10
2018-12-25T05:47:06.757Z,1.37
2018-12-25T05:50:13.982Z,2.00
2018-12-25T05:53:20.921Z,2.40
2018-12-25T05:56:27.862Z,1.93
2018-12-25T05:59:34.905Z,1.80
2018-12-25T06:02:42.142Z,2.10
2018-12-25T06:05:49.372Z,1.57
2018-12-25T06:08:56.628Z,1.73
2018-12-25T06:12:03.634Z,1.70
2018-12-25T06:15:10.693Z,1.70
2018-12-25T06:18:18.739Z,1.50
2018-12-25T06:21:25.971Z,1.90
2018-12-25T06:24:32.997Z,1.90
2018-12-25T06:27:39.911Z,2.53
2018-12-25T06:30:49.170Z,2.13
2018-12-25T06:33:56.138Z,2.57
2018-12-25T06:37:03.093Z,2.37
2018-12-25T06:40:10.080Z,2.17
2018-12-25T06:43:19.074Z,2.30
2018-12-25T06:46:25.997Z,1.77
2018-12-25T06:49:32.936Z,1.87
2018-12-25T06:52:40.055Z,1.80
2018-12-25T06:55:46.990Z,1.67
2018-12-25T06:58:53.957Z,2.00
2018-12-25T07:02:00.919Z,2.27
2018-12-25T07:05:07.768Z,1.43
2018-12-25T07:08:14.772Z,1.97
2018-12-25T07:11:23.052Z,2.20
2018-12-25T07:14:30.036Z,1.97
2018-12-25T07:17:36.929Z,1.98
2018-12-25T07:20:43.884Z,2.17
2018-12-25T07:23:50.863Z,2.10
2018-12-25T07:26:57.832Z,1.83
2018-12-25T07:30:05.163Z,2.30
2018-12-25T07:33:12.125Z,2.53
2018-12-25T07:36:19.121Z,1.73
2018-12-25T07:39:26.554Z,1.80
2018-12-25T07:42:33.487Z,2.27
2018-12-25T07:45:40.483Z,2.43
2018-12-25T07:48:47.436Z,2.30
2018-12-25T07:51:54.316Z,2.80
2018-12-25T07:55:01.300Z,2.50
2018-12-25T07:58:08.424Z,1.83
2018-12-25T08:01:15.347Z,2.20
2018-12-25T08:04:22.247Z,2.20
2018-12-25T08:07:29.176Z,2.53
2018-12-25T08:10:36.065Z,2.70
2018-12-25T08:13:43.026Z,2.70
2018-12-25T08:16:49.991Z,2.17
2018-12-25T08:19:56.965Z,2.30
2018-12-25T08:23:06.182Z,2.37
2018-12-25T08:26:13.094Z,2.37
2018-12-25T08:29:20.051Z,2.70
2018-12-25T08:32:27.321Z,2.27
2018-12-25T08:35:34.312Z,2.87
2018-12-25T08:38:41.418Z,2.63
2018-12-25T08:41:48.374Z,3.10
2018-12-25T08:44:55.374Z,2.80
2018-12-25T08:48:02.334Z,3.13
2018-12-25T08:51:11.588Z,2.47
2018-12-25T08:54:18.571Z,3.30
2018-12-25T08:57:25.743Z,2.90
2018-12-25T09:00:32.734Z,2.73
2018-12-25T09:03:41.017Z,2.73
2018-12-25T09:06:48.031Z,4.00
2018-12-25T09:09:55.001Z,4.00
2018-12-25T09:13:01.984Z,3.80
2018-12-25T09:16:08.998Z,3.40
2018-12-25T09:19:16.030Z,3.43
2018-12-25T09:22:23.084Z,3.80
2018-12-25T09:25:30.058Z,4.03
2018-12-25T09:28:37.088Z,3.90
2018-12-25T09:31:44.357Z,4.17
2018-12-25T09:34:51.313Z,3.83
2018-12-25T09:37:58.272Z,4.13
2018-12-25T09:41:05.246Z,4.57
2018-12-25T09:44:12.228Z,3.60
2018-12-25T09:47:19.178Z,4.53
2018-12-25T09:50:26.139Z,4.27
2018-12-25T09:53:33.052Z,4.83
2018-12-25T09:56:40.153Z,4.70
2018-12-25T09:59:47.122Z,5.33
2018-12-25T10:02:54.050Z,5.80
2018-12-25T10:06:01.098Z,5.37
2018-12-25T10:09:08.963Z,5.27
2018-12-25T10:12:16.043Z,4.93
2018-12-25T10:15:24.601Z,4.93
2018-12-25T10:18:31.743Z,4.73
2018-12-25T10:21:38.858Z,4.57
2018-12-25T10:24:45.849Z,4.23
2018-12-25T10:27:55.112Z,4.47
2018-12-25T10:31:02.080Z,4.33
2018-12-25T10:34:09.158Z,3.53
2018-12-25T10:37:16.124Z,4.27
2018-12-25T10:40:24.545Z,4.10
2018-12-25T10:43:31.459Z,4.07
2018-12-25T10:46:38.525Z,4.67
2018-12-25T10:49:45.494Z,4.67
2018-12-25T10:52:52.417Z,4.13
2018-12-25T10:55:59.667Z,4.10
2018-12-25T10:59:06.693Z,4.37
2018-12-25T11:02:13.610Z,4.27
2018-12-25T11:05:20.634Z,4.70
2018-12-25T11:08:27.647Z,5.53
2018-12-25T11:11:35.084Z,3.87
2018-12-25T11:14:42.104Z,4.27
2018-12-25T11:17:49.034Z,4.77
2018-12-25T11:20:55.917Z,4.73
2018-12-25T11:24:03.129Z,4.53
2018-12-25T11:27:10.131Z,4.20
2018-12-25T11:30:17.070Z,4.47
2018-12-25T11:33:24.098Z,5.07
2018-12-25T11:36:31.108Z,4.20
2018-12-25T11:39:38.176Z,3.43
2018-12-25T11:42:45.129Z,4.37
2018-12-25T11:45:52.059Z,4.10
2018-12-25T11:48:59.012Z,4.10
2018-12-25T11:52:06.853Z,4.00
2018-12-25T11:55:13.814Z,4.27
2018-12-25T11:58:20.768Z,3.73
2018-12-25T12:01:27.796Z,3.90
2018-12-25T12:04:34.733Z,4.57
2018-12-25T12:07:42.027Z,4.03
2018-12-25T12:10:48.990Z,3.87
2018-12-25T12:13:55.956Z,4.23
2018-12-25T12:17:03.073Z,3.73
2018-12-25T12:20:10.637Z,4.53
2018-12-25T12:23:17.806Z,4.73
2018-12-25T12:26:24.928Z,3.87
2018-12-25T12:29:31.887Z,4.70
2018-12-25T12:32:38.814Z,4.50
2018-12-25T12:35:45.781Z,3.63
2018-12-25T12:38:53.203Z,4.50
2018-12-25T12:42:00.270Z,4.00
2018-12-25T12:45:08.032Z,4.17
2018-12-25T12:48:15.572Z,4.53
2018-12-25T12:51:22.659Z,5.03
2018-12-25T12:54:29.672Z,3.80
2018-12-25T12:57:37.851Z,3.83
2018-12-25T13:00:46.594Z,4.77
2018-12-25T13:03:53.574Z,5.10
2018-12-25T13:07:00.552Z,4.10
2018-12-25T13:10:09.629Z,4.30
2018-12-25T13:13:16.798Z,5.33
2018-12-25T13:16:24.011Z,3.90
2018-12-25T13:19:31.263Z,4.30
2018-12-25T13:22:38.512Z,4.73
2018-12-25T13:25:45.505Z,5.83
2018-12-25T13:28:53.473Z,4.90
2018-12-25T13:32:00.614Z,4.10
2018-12-25T13:35:07.610Z,4.90
2018-12-25T13:38:14.646Z,3.57
2018-12-25T13:41:21.694Z,5.07
2018-12-25T13:44:28.627Z,4.90
2018-12-25T13:47:35.721Z,4.00
2018-12-25T13:50:42.816Z,4.60
2018-12-25T13:53:49.819Z,4.07
2018-12-25T13:56:56.951Z,4.20
2018-12-25T14:00:04.433Z,3.93
2018-12-25T14:03:11.638Z,4.17
2018-12-25T14:06:18.604Z,3.87
2018-12-25T14:09:25.975Z,4.37
2018-12-25T14:12:33.062Z,4.00
2018-12-25T14:15:39.959Z,3.63
2018-12-25T14:18:46.979Z,4.20
2018-12-25T14:21:53.956Z,11.10
2018-12-25T14:25:02.081Z,3.70
2018-12-25T14:28:09.303Z,3.50
2018-12-25T14:31:16.383Z,3.30
2018-12-25T14:34:23.563Z,4.07
2018-12-25T14:37:30.659Z,5.27
2018-12-25T14:40:37.642Z,3.50
2018-12-25T14:43:44.670Z,4.93
2018-12-25T14:46:51.679Z,3.90
2018-12-25T14:49:58.698Z,3.70
2018-12-25T14:53:05.720Z,4.20
2018-12-25T14:56:12.709Z,3.87
2018-12-25T14:59:19.741Z,4.67
2018-12-25T15:02:27.008Z,3.67
2018-12-25T15:05:33.939Z,4.40
2018-12-25T15:08:41.051Z,4.23
2018-12-25T15:11:48.201Z,4.30
2018-12-25T15:14:55.203Z,3.57
2018-12-25T15:18:02.224Z,4.00
2018-12-25T15:21:10.782Z,3.57
2018-12-25T15:24:17.844Z,5.00
2018-12-25T15:27:24.866Z,3.60
2018-12-25T15:30:31.777Z,3.67
2018-12-25T15:33:38.829Z,3.33
2018-12-25T15:36:45.855Z,3.40
2018-12-25T15:39:52.817Z,3.00
2018-12-25T15:42:59.717Z,3.20
2018-12-25T15:46:06.719Z,3.53
2018-12-25T15:49:14.888Z,3.47
2018-12-25T15:52:21.875Z,3.80
2018-12-25T15:55:28.801Z,4.87
2018-12-25T15:58:35.806Z,4.30
2018-12-25T16:01:43.042Z,3.90
2018-12-25T16:04:50.029Z,3.90
2018-12-25T16:07:57.004Z,3.63
2018-12-25T16:11:03.896Z,3.53
2018-12-25T16:14:10.878Z,3.80
2018-12-25T16:17:18.814Z,3.67
2018-12-25T16:20:25.835Z,3.67
2018-12-25T16:23:32.819Z,3.47
2018-12-25T16:26:39.762Z,4.10
2018-12-25T16:29:46.828Z,3.60
2018-12-25T16:32:53.774Z,3.50
2018-12-25T16:36:00.715Z,3.70
2018-12-25T16:39:08.709Z,3.63
2018-12-25T16:42:15.641Z,4.63
2018-12-25T16:45:24.415Z,3.33
2018-12-25T16:48:31.370Z,3.90
2018-12-25T16:51:46.158Z,4.23
2018-12-25T16:54:53.190Z,4.80
2018-12-25T16:58:00.253Z,4.60
2018-12-25T17:01:07.249Z,4.30
2018-12-25T17:04:14.233Z,4.57
2018-12-25T17:07:21.131Z,4.83
2018-12-25T17:10:30.202Z,3.80
2018-12-25T17:13:37.264Z,4.57
2018-12-25T17:16:44.210Z,5.60
2018-12-25T17:19:51.193Z,10.23
2018-12-25T17:22:58.962Z,4.87
2018-12-25T17:26:05.893Z,5.30
2018-12-25T17:29:12.850Z,7.10
2018-12-25T17:32:19.774Z,4.87
2018-12-25T17:35:26.727Z,4.73
2018-12-25T17:38:34.062Z,5.87
2018-12-25T17:41:40.991Z,6.40
2018-12-25T17:44:47.978Z,6.67
2018-12-25T17:47:54.943Z,4.50
2018-12-25T17:51:01.907Z,5.70
2018-12-25T17:54:10.777Z,3.90
2018-12-25T17:57:17.972Z,4.67
2018-12-25T18:00:24.966Z,5.50
2018-12-25T18:03:31.929Z,3.83
2018-12-25T18:06:39.078Z,4.10
2018-12-25T18:09:46.198Z,4.40
2018-12-25T18:12:53.164Z,4.33
2018-12-25T18:16:00.196Z,4.20
2018-12-25T18:19:08.126Z,4.50
2018-12-25T18:22:15.100Z,4.07
2018-12-25T18:25:22.055Z,4.53
2018-12-25T18:28:29.038Z,5.23
2018-12-25T18:31:36.081Z,4.33
2018-12-25T18:34:43.093Z,4.37
2018-12-25T18:37:49.988Z,4.57
2018-12-25T18:40:56.947Z,4.10
2018-12-25T18:44:04.001Z,4.13
2018-12-25T18:47:11.109Z,4.43
2018-12-25T18:50:18.026Z,5.00
2018-12-25T18:53:24.933Z,4.87
2018-12-25T18:56:32.392Z,5.83
2018-12-25T18:59:39.550Z,4.60
2018-12-25T19:02:46.659Z,4.37
2018-12-25T19:05:53.930Z,4.93
2018-12-25T19:09:01.291Z,4.73
2018-12-25T19:12:08.359Z,5.13
2018-12-25T19:15:29.414Z,5.77
2018-12-25T19:18:36.535Z,5.37
2018-12-25T19:21:43.605Z,5.43
2018-12-25T19:24:51.519Z,4.73
2018-12-25T19:27:58.729Z,5.77
2018-12-25T19:31:06.075Z,5.57
2018-12-25T19:34:13.035Z,5.67
2018-12-25T19:37:21.642Z,4.93
2018-12-25T19:40:28.698Z,5.70
2018-12-25T19:43:35.735Z,4.83
2018-12-25T19:46:42.719Z,4.87
2018-12-25T19:49:49.846Z,5.20
2018-12-25T19:52:57.031Z,5.50
2018-12-25T19:56:04.112Z,5.60
2018-12-25T19:59:16.413Z,6.20
2018-12-25T20:02:28.325Z,5.37
2018-12-25T20:06:15.250Z,6.27
2018-12-25T20:09:59.705Z,5.23
2018-12-25T20:13:31.317Z,5.20
2018-12-25T20:17:13.870Z,6.47
2018-12-25T20:20:55.470Z,5.87
2018-12-25T20:24:38.897Z,5.97
2018-12-25T20:28:37.555Z,5.70
2018-12-25T20:32:34.309Z,5.67
2018-12-25T20:36:21.481Z,5.30
2018-12-25T20:39:58.864Z,6.00
2018-12-25T20:44:11.120Z,5.93
2018-12-25T20:47:55.239Z,5.20
2018-12-25T20:51:54.519Z,6.87
2018-12-25T20:55:47.473Z,6.90
2018-12-25T20:59:35.117Z,5.70
2018-12-25T21:03:21.746Z,5.73
2018-12-25T21:07:18.792Z,6.97
2018-12-25T21:11:15.919Z,6.50
2018-12-25T21:15:00.252Z,4.87
2018-12-25T21:18:58.289Z,6.03
2018-12-25T21:22:53.977Z,6.83
2018-12-25T21:26:36.558Z,5.93
2018-12-25T21:29:43.949Z,6.00
2018-12-25T21:32:51.080Z,6.37
2018-12-25T21:35:58.765Z,5.80
2018-12-25T21:39:09.084Z,5.70
2018-12-25T21:42:16.343Z,6.30
2018-12-25T21:45:23.985Z,5.17
2018-12-25T21:48:30.976Z,6.03
2018-12-25T21:51:38.081Z,5.97
2018-12-25T21:54:45.631Z,5.67
2018-12-25T21:57:53.706Z,5.77
2018-12-25T22:01:02.179Z,5.17
2018-12-25T22:04:09.367Z,5.97
2018-12-25T22:07:18.881Z,6.20
2018-12-25T22:10:26.095Z,6.47
2018-12-25T22:13:33.293Z,7.37
2018-12-25T22:16:40.726Z,6.63
2018-12-25T22:19:48.032Z,6.23
2018-12-25T22:22:55.011Z,6.07
2018-12-25T22:26:02.386Z,6.30
2018-12-25T22:29:09.449Z,7.07
2018-12-25T22:32:16.610Z,5.60
2018-12-25T22:35:24.704Z,5.77
2018-12-25T22:38:31.924Z,6.90
2018-12-25T22:41:39.156Z,6.43
2018-12-25T22:44:46.294Z,6.57
2018-12-25T22:47:54.786Z,5.80
2018-12-25T22:51:02.082Z,6.90
2018-12-25T22:54:09.222Z,6.10
2018-12-25T22:57:16.455Z,7.00
2018-12-25T23:00:23.901Z,6.73
2018-12-25T23:03:31.292Z,7.27
2018-12-25T23:06:38.523Z,7.00
2018-12-25T23:09:45.779Z,6.03
2018-12-25T23:12:52.970Z,6.77
2018-12-25T23:16:01.193Z,7.50
2018-12-25T23:19:08.657Z,7.57
2018-12-25T23:22:15.847Z,7.07
2018-12-25T23:25:23.730Z,6.93
2018-12-25T23:28:31.011Z,7.07
2018-12-25T23:31:38.059Z,7.17
2018-12-25T23:34:45.617Z,6.90
2018-12-25T23:37:52.712Z,6.63
2018-12-25T23:40:59.938Z,6.77
2018-12-25T23:44:07.892Z,6.80
2018-12-25T23:47:15.424Z,7.23
2018-12-25T23:50:22.815Z,7.53
2018-12-25T23:53:31.749Z,7.53
2018-12-25T23:56:38.679Z,7.13
2018-12-25T23:59:46.072Z,7.17
